Terminal Aerodrome Forecast
Issued by NWS Sioux Falls, SD

Home | Current Version | Previous Version | Text Only | Print | Product List | Glossary Off
Versions: 1 2 3 4 5 6 7 8 9 10 11 12 13 14

000
FTUS43 KFSD 220544
TAFHON
TAF
KHON 220544Z 2206/2306 17005KT P6SM SKC
     FM221500 18011KT P6SM SKC
     FM221800 17011G17KT P6SM SKC
     FM230000 16010KT P6SM BKN090=

USA.gov is the U.S. government's official web portal to all federal, state and local government web resources and services.